sensor_id;sensor_type;location;lat;lon;timestamp;temperature;humidity
3408;DHT22;1717;50.240;8.406;2022-11-28T00:02:11;10.10;91.70
3408;DHT22;1717;50.240;8.406;2022-11-28T00:04:38;10.10;91.60
3408;DHT22;1717;50.240;8.406;2022-11-28T00:07:05;10.10;91.70
3408;DHT22;1717;50.240;8.406;2022-11-28T00:09:32;10.10;92.10
3408;DHT22;1717;50.240;8.406;2022-11-28T00:11:59;10.10;91.80
3408;DHT22;1717;50.240;8.406;2022-11-28T00:14:25;10.00;91.90
3408;DHT22;1717;50.240;8.406;2022-11-28T00:16:54;10.10;91.90
3408;DHT22;1717;50.240;8.406;2022-11-28T00:19:21;10.00;91.90
3408;DHT22;1717;50.240;8.406;2022-11-28T00:21:47;10.00;91.90
3408;DHT22;1717;50.240;8.406;2022-11-28T00:24:14;10.00;91.80
3408;DHT22;1717;50.240;8.406;2022-11-28T00:26:41;9.90;92.40
3408;DHT22;1717;50.240;8.406;2022-11-28T00:29:09;9.90;92.40
3408;DHT22;1717;50.240;8.406;2022-11-28T00:31:38;10.00;91.90
3408;DHT22;1717;50.240;8.406;2022-11-28T00:34:08;10.00;91.90
3408;DHT22;1717;50.240;8.406;2022-11-28T00:36:35;9.90;92.40
3408;DHT22;1717;50.240;8.406;2022-11-28T00:39:03;9.90;92.60
3408;DHT22;1717;50.240;8.406;2022-11-28T00:41:31;9.90;92.60
3408;DHT22;1717;50.240;8.406;2022-11-28T00:44:00;9.90;92.60
3408;DHT22;1717;50.240;8.406;2022-11-28T00:46:27;9.90;92.60
3408;DHT22;1717;50.240;8.406;2022-11-28T00:48:54;9.90;92.70
3408;DHT22;1717;50.240;8.406;2022-11-28T00:51:24;9.80;92.70
3408;DHT22;1717;50.240;8.406;2022-11-28T00:53:53;9.80;92.70
3408;DHT22;1717;50.240;8.406;2022-11-28T00:56:21;9.80;92.70
3408;DHT22;1717;50.240;8.406;2022-11-28T00:58:49;9.80;92.70
3408;DHT22;1717;50.240;8.406;2022-11-28T01:01:17;9.90;92.80
3408;DHT22;1717;50.240;8.406;2022-11-28T01:03:45;9.70;92.70
3408;DHT22;1717;50.240;8.406;2022-11-28T01:06:12;9.70;92.70
3408;DHT22;1717;50.240;8.406;2022-11-28T01:08:40;9.70;92.70
3408;DHT22;1717;50.240;8.406;2022-11-28T01:11:10;9.60;92.00
3408;DHT22;1717;50.240;8.406;2022-11-28T01:13:37;9.60;92.60
3408;DHT22;1717;50.240;8.406;2022-11-28T01:16:05;9.60;92.40
3408;DHT22;1717;50.240;8.406;2022-11-28T01:18:32;9.70;92.60
3408;DHT22;1717;50.240;8.406;2022-11-28T01:20:59;9.60;92.40
3408;DHT22;1717;50.240;8.406;2022-11-28T01:23:26;9.60;92.90
3408;DHT22;1717;50.240;8.406;2022-11-28T01:25:54;9.60;92.40
3408;DHT22;1717;50.240;8.406;2022-11-28T01:28:21;9.60;92.10
3408;DHT22;1717;50.240;8.406;2022-11-28T01:30:48;9.50;91.70
3408;DHT22;1717;50.240;8.406;2022-11-28T01:33:15;9.50;92.20
3408;DHT22;1717;50.240;8.406;2022-11-28T01:35:41;9.50;92.20
3408;DHT22;1717;50.240;8.406;2022-11-28T01:38:08;9.60;92.30
3408;DHT22;1717;50.240;8.406;2022-11-28T01:40:35;9.60;92.30
3408;DHT22;1717;50.240;8.406;2022-11-28T01:43:10;9.60;92.30
3408;DHT22;1717;50.240;8.406;2022-11-28T01:45:38;9.60;92.30
3408;DHT22;1717;50.240;8.406;2022-11-28T01:48:05;9.60;92.30
3408;DHT22;1717;50.240;8.406;2022-11-28T01:50:35;9.70;92.50
3408;DHT22;1717;50.240;8.406;2022-11-28T01:53:05;9.70;92.30
3408;DHT22;1717;50.240;8.406;2022-11-28T01:55:38;9.70;92.20
3408;DHT22;1717;50.240;8.406;2022-11-28T01:58:06;9.80;92.10
3408;DHT22;1717;50.240;8.406;2022-11-28T02:00:34;9.80;92.20
3408;DHT22;1717;50.240;8.406;2022-11-28T02:03:03;9.80;92.10
3408;DHT22;1717;50.240;8.406;2022-11-28T02:05:32;9.80;92.10
3408;DHT22;1717;50.240;8.406;2022-11-28T02:07:59;9.80;92.30
3408;DHT22;1717;50.240;8.406;2022-11-28T02:10:29;9.70;92.20
3408;DHT22;1717;50.240;8.406;2022-11-28T02:13:12;9.80;92.20
3408;DHT22;1717;50.240;8.406;2022-11-28T02:16:05;9.70;92.20
3408;DHT22;1717;50.240;8.406;2022-11-28T02:18:42;9.80;92.40
3408;DHT22;1717;50.240;8.406;2022-11-28T02:30:04;9.80;92.20
3408;DHT22;1717;50.240;8.406;2022-11-28T02:32:59;9.80;92.20
3408;DHT22;1717;50.240;8.406;2022-11-28T02:35:33;9.90;92.70
3408;DHT22;1717;50.240;8.406;2022-11-28T02:38:08;9.80;92.50
3408;DHT22;1717;50.240;8.406;2022-11-28T02:40:39;9.90;92.50
3408;DHT22;1717;50.240;8.406;2022-11-28T02:43:14;9.70;92.60
3408;DHT22;1717;50.240;8.406;2022-11-28T02:45:49;9.80;92.60
3408;DHT22;1717;50.240;8.406;2022-11-28T02:48:25;9.70;92.30
3408;DHT22;1717;50.240;8.406;2022-11-28T02:50:59;9.70;92.20
3408;DHT22;1717;50.240;8.406;2022-11-28T02:53:29;9.70;92.30
3408;DHT22;1717;50.240;8.406;2022-11-28T02:55:57;9.70;92.20
3408;DHT22;1717;50.240;8.406;2022-11-28T02:58:25;9.70;92.10
3408;DHT22;1717;50.240;8.406;2022-11-28T03:00:52;9.70;92.10
3408;DHT22;1717;50.240;8.406;2022-11-28T03:03:41;9.70;91.90
3408;DHT22;1717;50.240;8.406;2022-11-28T03:06:20;9.70;91.70
3408;DHT22;1717;50.240;8.406;2022-11-28T03:09:05;9.70;91.70
3408;DHT22;1717;50.240;8.406;2022-11-28T03:11:46;9.70;91.80
3408;DHT22;1717;50.240;8.406;2022-11-28T03:14:23;9.70;91.70
3408;DHT22;1717;50.240;8.406;2022-11-28T03:16:55;9.70;92.20
3408;DHT22;1717;50.240;8.406;2022-11-28T03:19:31;9.70;91.70
3408;DHT22;1717;50.240;8.406;2022-11-28T03:22:05;9.80;91.70
3408;DHT22;1717;50.240;8.406;2022-11-28T03:24:36;9.70;91.60
3408;DHT22;1717;50.240;8.406;2022-11-28T03:27:11;9.70;91.40
3408;DHT22;1717;50.240;8.406;2022-11-28T03:29:43;9.80;91.50
3408;DHT22;1717;50.240;8.406;2022-11-28T03:32:16;9.60;91.10
3408;DHT22;1717;50.240;8.406;2022-11-28T03:34:49;9.60;91.00
3408;DHT22;1717;50.240;8.406;2022-11-28T03:37:19;9.50;90.90
3408;DHT22;1717;50.240;8.406;2022-11-28T03:39:49;9.40;90.60
3408;DHT22;1717;50.240;8.406;2022-11-28T03:42:20;9.30;90.50
3408;DHT22;1717;50.240;8.406;2022-11-28T03:44:52;9.20;90.30
3408;DHT22;1717;50.240;8.406;2022-11-28T03:47:20;9.20;90.40
3408;DHT22;1717;50.240;8.406;2022-11-28T03:49:52;9.20;90.80
3408;DHT22;1717;50.240;8.406;2022-11-28T03:52:24;9.30;90.60
3408;DHT22;1717;50.240;8.406;2022-11-28T03:54:56;9.20;90.40
3408;DHT22;1717;50.240;8.406;2022-11-28T03:57:28;9.20;90.20
3408;DHT22;1717;50.240;8.406;2022-11-28T04:00:01;9.00;90.10
3408;DHT22;1717;50.240;8.406;2022-11-28T04:02:35;8.90;90.20
3408;DHT22;1717;50.240;8.406;2022-11-28T04:05:09;9.00;90.40
3408;DHT22;1717;50.240;8.406;2022-11-28T04:07:41;9.10;90.50
3408;DHT22;1717;50.240;8.406;2022-11-28T04:10:14;9.10;90.50
3408;DHT22;1717;50.240;8.406;2022-11-28T04:12:50;9.10;90.50
3408;DHT22;1717;50.240;8.406;2022-11-28T04:15:24;9.00;90.50
3408;DHT22;1717;50.240;8.406;2022-11-28T04:17:56;9.10;90.80
3408;DHT22;1717;50.240;8.406;2022-11-28T04:20:30;9.10;90.70
3408;DHT22;1717;50.240;8.406;2022-11-28T04:23:03;9.10;90.70
3408;DHT22;1717;50.240;8.406;2022-11-28T04:25:34;9.10;90.90
3408;DHT22;1717;50.240;8.406;2022-11-28T04:28:05;9.10;91.00
3408;DHT22;1717;50.240;8.406;2022-11-28T04:30:33;9.10;91.20
3408;DHT22;1717;50.240;8.406;2022-11-28T04:33:06;9.10;91.30
3408;DHT22;1717;50.240;8.406;2022-11-28T04:35:38;9.20;91.40
3408;DHT22;1717;50.240;8.406;2022-11-28T04:38:09;9.20;91.30
3408;DHT22;1717;50.240;8.406;2022-11-28T04:40:41;9.10;91.40
3408;DHT22;1717;50.240;8.406;2022-11-28T04:43:16;9.10;91.50
3408;DHT22;1717;50.240;8.406;2022-11-28T04:45:45;9.10;91.70
3408;DHT22;1717;50.240;8.406;2022-11-28T04:48:13;9.10;91.80
3408;DHT22;1717;50.240;8.406;2022-11-28T04:50:48;9.10;91.90
3408;DHT22;1717;50.240;8.406;2022-11-28T04:53:19;9.20;92.00
3408;DHT22;1717;50.240;8.406;2022-11-28T04:55:52;9.00;92.10
3408;DHT22;1717;50.240;8.406;2022-11-28T04:58:23;9.20;92.30
3408;DHT22;1717;50.240;8.406;2022-11-28T05:00:53;9.20;92.40
3408;DHT22;1717;50.240;8.406;2022-11-28T05:03:21;9.30;92.50
3408;DHT22;1717;50.240;8.406;2022-11-28T05:05:53;9.20;92.50
3408;DHT22;1717;50.240;8.406;2022-11-28T05:08:20;9.30;92.30
3408;DHT22;1717;50.240;8.406;2022-11-28T05:10:47;9.40;92.30
3408;DHT22;1717;50.240;8.406;2022-11-28T05:13:14;9.30;92.30
3408;DHT22;1717;50.240;8.406;2022-11-28T05:15:41;9.40;92.60
3408;DHT22;1717;50.240;8.406;2022-11-28T05:18:08;9.40;92.60
3408;DHT22;1717;50.240;8.406;2022-11-28T05:20:36;9.40;92.60
3408;DHT22;1717;50.240;8.406;2022-11-28T05:23:04;9.30;92.80
3408;DHT22;1717;50.240;8.406;2022-11-28T05:25:32;9.30;93.20
3408;DHT22;1717;50.240;8.406;2022-11-28T05:27:59;9.20;93.10
3408;DHT22;1717;50.240;8.406;2022-11-28T05:30:25;9.20;93.30
3408;DHT22;1717;50.240;8.406;2022-11-28T05:32:52;9.00;93.30
3408;DHT22;1717;50.240;8.406;2022-11-28T05:35:20;9.10;93.70
3408;DHT22;1717;50.240;8.406;2022-11-28T05:37:47;9.10;93.70
3408;DHT22;1717;50.240;8.406;2022-11-28T05:40:16;9.20;93.50
3408;DHT22;1717;50.240;8.406;2022-11-28T05:42:43;9.30;93.40
3408;DHT22;1717;50.240;8.406;2022-11-28T05:45:10;9.30;93.30
3408;DHT22;1717;50.240;8.406;2022-11-28T05:47:37;9.30;93.30
3408;DHT22;1717;50.240;8.406;2022-11-28T05:50:05;9.30;93.40
3408;DHT22;1717;50.240;8.406;2022-11-28T05:52:32;9.30;93.30
3408;DHT22;1717;50.240;8.406;2022-11-28T05:54:59;9.30;93.50
3408;DHT22;1717;50.240;8.406;2022-11-28T05:57:27;9.20;93.60
3408;DHT22;1717;50.240;8.406;2022-11-28T05:59:56;9.20;93.80
3408;DHT22;1717;50.240;8.406;2022-11-28T06:02:23;9.20;94.00
3408;DHT22;1717;50.240;8.406;2022-11-28T06:04:50;9.10;93.90
3408;DHT22;1717;50.240;8.406;2022-11-28T06:07:17;9.10;93.90
3408;DHT22;1717;50.240;8.406;2022-11-28T06:09:44;9.10;94.00
3408;DHT22;1717;50.240;8.406;2022-11-28T06:12:11;9.10;93.90
3408;DHT22;1717;50.240;8.406;2022-11-28T06:14:39;9.20;93.90
3408;DHT22;1717;50.240;8.406;2022-11-28T06:17:06;9.10;93.80
3408;DHT22;1717;50.240;8.406;2022-11-28T06:19:33;9.20;94.00
3408;DHT22;1717;50.240;8.406;2022-11-28T06:22:00;9.20;94.10
3408;DHT22;1717;50.240;8.406;2022-11-28T06:24:27;9.10;94.00
3408;DHT22;1717;50.240;8.406;2022-11-28T06:26:54;9.20;93.90
3408;DHT22;1717;50.240;8.406;2022-11-28T06:29:21;9.10;93.90
3408;DHT22;1717;50.240;8.406;2022-11-28T06:31:49;9.10;94.00
3408;DHT22;1717;50.240;8.406;2022-11-28T06:34:16;9.10;94.00
3408;DHT22;1717;50.240;8.406;2022-11-28T06:36:43;9.10;93.90
3408;DHT22;1717;50.240;8.406;2022-11-28T06:39:12;9.10;93.90
3408;DHT22;1717;50.240;8.406;2022-11-28T06:41:39;9.20;93.90
3408;DHT22;1717;50.240;8.406;2022-11-28T06:44:07;9.20;93.80
3408;DHT22;1717;50.240;8.406;2022-11-28T06:46:34;9.20;93.80
3408;DHT22;1717;50.240;8.406;2022-11-28T06:49:02;9.40;93.80
3408;DHT22;1717;50.240;8.406;2022-11-28T06:51:29;9.20;93.80
3408;DHT22;1717;50.240;8.406;2022-11-28T06:53:56;9.00;93.70
3408;DHT22;1717;50.240;8.406;2022-11-28T06:56:23;9.00;93.90
3408;DHT22;1717;50.240;8.406;2022-11-28T06:58:54;9.00;93.90
3408;DHT22;1717;50.240;8.406;2022-11-28T07:01:22;8.90;94.00
3408;DHT22;1717;50.240;8.406;2022-11-28T07:03:49;8.90;94.10
3408;DHT22;1717;50.240;8.406;2022-11-28T07:06:21;9.00;94.10
3408;DHT22;1717;50.240;8.406;2022-11-28T07:08:48;9.00;94.00
3408;DHT22;1717;50.240;8.406;2022-11-28T07:11:17;8.90;93.80
3408;DHT22;1717;50.240;8.406;2022-11-28T07:13:45;8.90;94.10
3408;DHT22;1717;50.240;8.406;2022-11-28T07:16:14;9.00;94.00
3408;DHT22;1717;50.240;8.406;2022-11-28T07:18:41;9.00;93.90
3408;DHT22;1717;50.240;8.406;2022-11-28T07:21:08;9.10;94.00
3408;DHT22;1717;50.240;8.406;2022-11-28T07:23:36;9.20;93.90
3408;DHT22;1717;50.240;8.406;2022-11-28T07:26:04;9.20;93.80
3408;DHT22;1717;50.240;8.406;2022-11-28T07:28:32;9.30;93.80
3408;DHT22;1717;50.240;8.406;2022-11-28T07:31:00;9.30;93.80
3408;DHT22;1717;50.240;8.406;2022-11-28T07:33:28;9.30;93.90
3408;DHT22;1717;50.240;8.406;2022-11-28T07:35:59;9.20;93.90
3408;DHT22;1717;50.240;8.406;2022-11-28T07:38:26;9.30;93.90
3408;DHT22;1717;50.240;8.406;2022-11-28T07:40:54;9.20;94.10
3408;DHT22;1717;50.240;8.406;2022-11-28T07:43:21;9.20;94.20
3408;DHT22;1717;50.240;8.406;2022-11-28T07:45:49;9.20;94.20
3408;DHT22;1717;50.240;8.406;2022-11-28T07:48:15;9.20;94.20
3408;DHT22;1717;50.240;8.406;2022-11-28T07:50:42;9.20;94.30
3408;DHT22;1717;50.240;8.406;2022-11-28T07:53:09;9.10;94.40
3408;DHT22;1717;50.240;8.406;2022-11-28T07:55:36;9.10;94.40
3408;DHT22;1717;50.240;8.406;2022-11-28T07:58:05;9.20;94.50
3408;DHT22;1717;50.240;8.406;2022-11-28T08:00:32;9.20;94.60
3408;DHT22;1717;50.240;8.406;2022-11-28T08:02:59;9.20;94.70
3408;DHT22;1717;50.240;8.406;2022-11-28T08:05:26;9.10;94.90
3408;DHT22;1717;50.240;8.406;2022-11-28T08:07:53;9.00;95.10
3408;DHT22;1717;50.240;8.406;2022-11-28T08:10:20;9.10;95.00
3408;DHT22;1717;50.240;8.406;2022-11-28T08:12:47;9.10;95.10
3408;DHT22;1717;50.240;8.406;2022-11-28T08:15:16;9.10;95.10
3408;DHT22;1717;50.240;8.406;2022-11-28T08:17:43;9.10;95.20
3408;DHT22;1717;50.240;8.406;2022-11-28T08:20:10;9.20;94.90
3408;DHT22;1717;50.240;8.406;2022-11-28T08:22:37;9.20;95.00
3408;DHT22;1717;50.240;8.406;2022-11-28T08:25:05;9.20;95.00
3408;DHT22;1717;50.240;8.406;2022-11-28T08:27:32;9.20;95.00
3408;DHT22;1717;50.240;8.406;2022-11-28T08:29:59;9.30;95.00
3408;DHT22;1717;50.240;8.406;2022-11-28T08:32:29;9.10;95.40
3408;DHT22;1717;50.240;8.406;2022-11-28T08:34:56;8.90;95.50
3408;DHT22;1717;50.240;8.406;2022-11-28T08:37:23;9.00;95.80
3408;DHT22;1717;50.240;8.406;2022-11-28T08:39:51;9.10;95.80
3408;DHT22;1717;50.240;8.406;2022-11-28T08:42:18;9.20;95.70
3408;DHT22;1717;50.240;8.406;2022-11-28T08:44:45;9.20;95.70
3408;DHT22;1717;50.240;8.406;2022-11-28T08:47:12;9.20;95.50
3408;DHT22;1717;50.240;8.406;2022-11-28T08:49:40;9.20;95.60
3408;DHT22;1717;50.240;8.406;2022-11-28T08:52:07;9.30;95.50
3408;DHT22;1717;50.240;8.406;2022-11-28T08:54:35;9.40;95.50
3408;DHT22;1717;50.240;8.406;2022-11-28T08:57:01;9.40;95.60
3408;DHT22;1717;50.240;8.406;2022-11-28T08:59:28;9.50;95.50
3408;DHT22;1717;50.240;8.406;2022-11-28T09:01:55;9.40;95.60
3408;DHT22;1717;50.240;8.406;2022-11-28T09:04:22;9.50;95.50
3408;DHT22;1717;50.240;8.406;2022-11-28T09:06:51;9.50;95.60
3408;DHT22;1717;50.240;8.406;2022-11-28T09:09:18;9.60;95.70
3408;DHT22;1717;50.240;8.406;2022-11-28T09:11:45;9.60;95.80
3408;DHT22;1717;50.240;8.406;2022-11-28T09:14:12;9.60;95.90
3408;DHT22;1717;50.240;8.406;2022-11-28T09:16:39;9.60;95.90
3408;DHT22;1717;50.240;8.406;2022-11-28T09:19:07;9.60;96.00
3408;DHT22;1717;50.240;8.406;2022-11-28T09:21:35;9.60;96.10
3408;DHT22;1717;50.240;8.406;2022-11-28T09:24:05;9.60;96.00
3408;DHT22;1717;50.240;8.406;2022-11-28T09:26:32;9.60;96.10
3408;DHT22;1717;50.240;8.406;2022-11-28T09:28:59;9.60;95.80
3408;DHT22;1717;50.240;8.406;2022-11-28T09:31:26;9.70;96.00
3408;DHT22;1717;50.240;8.406;2022-11-28T09:33:53;9.70;96.20
3408;DHT22;1717;50.240;8.406;2022-11-28T09:36:24;9.70;96.20
3408;DHT22;1717;50.240;8.406;2022-11-28T09:38:52;9.70;96.00
3408;DHT22;1717;50.240;8.406;2022-11-28T09:41:41;9.80;96.20
3408;DHT22;1717;50.240;8.406;2022-11-28T09:44:15;9.80;96.20
3408;DHT22;1717;50.240;8.406;2022-11-28T09:46:45;9.80;96.20
3408;DHT22;1717;50.240;8.406;2022-11-28T09:49:22;10.00;95.60
3408;DHT22;1717;50.240;8.406;2022-11-28T09:51:52;9.90;96.30
3408;DHT22;1717;50.240;8.406;2022-11-28T09:54:31;10.00;95.60
3408;DHT22;1717;50.240;8.406;2022-11-28T09:57:02;10.00;95.70
3408;DHT22;1717;50.240;8.406;2022-11-28T09:59:34;10.00;96.00
3408;DHT22;1717;50.240;8.406;2022-11-28T10:02:08;10.10;95.70
3408;DHT22;1717;50.240;8.406;2022-11-28T10:04:42;10.10;95.60
3408;DHT22;1717;50.240;8.406;2022-11-28T10:07:21;10.10;95.50
3408;DHT22;1717;50.240;8.406;2022-11-28T10:09:56;10.20;95.60
3408;DHT22;1717;50.240;8.406;2022-11-28T10:12:36;10.20;95.50
3408;DHT22;1717;50.240;8.406;2022-11-28T10:15:17;10.20;95.50
3408;DHT22;1717;50.240;8.406;2022-11-28T10:17:51;10.20;95.50
3408;DHT22;1717;50.240;8.406;2022-11-28T10:20:26;10.20;95.40
3408;DHT22;1717;50.240;8.406;2022-11-28T10:22:56;10.30;95.40
3408;DHT22;1717;50.240;8.406;2022-11-28T10:25:27;10.30;95.30
3408;DHT22;1717;50.240;8.406;2022-11-28T10:27:56;10.20;95.30
3408;DHT22;1717;50.240;8.406;2022-11-28T10:30:25;10.20;95.50
3408;DHT22;1717;50.240;8.406;2022-11-28T10:32:59;10.20;95.70
3408;DHT22;1717;50.240;8.406;2022-11-28T10:35:33;10.20;95.50
3408;DHT22;1717;50.240;8.406;2022-11-28T10:38:01;10.20;95.60
3408;DHT22;1717;50.240;8.406;2022-11-28T10:40:37;10.30;95.70
3408;DHT22;1717;50.240;8.406;2022-11-28T10:43:19;10.30;95.60
3408;DHT22;1717;50.240;8.406;2022-11-28T10:45:51;10.30;96.00
3408;DHT22;1717;50.240;8.406;2022-11-28T10:48:34;10.30;95.70
3408;DHT22;1717;50.240;8.406;2022-11-28T10:51:21;10.20;95.90
3408;DHT22;1717;50.240;8.406;2022-11-28T10:53:56;10.20;96.00
3408;DHT22;1717;50.240;8.406;2022-11-28T10:56:34;10.30;96.00
3408;DHT22;1717;50.240;8.406;2022-11-28T10:59:12;10.40;96.00
3408;DHT22;1717;50.240;8.406;2022-11-28T11:01:44;10.50;96.00
3408;DHT22;1717;50.240;8.406;2022-11-28T11:04:16;10.50;96.10
3408;DHT22;1717;50.240;8.406;2022-11-28T11:06:52;10.50;96.10
3408;DHT22;1717;50.240;8.406;2022-11-28T11:09:23;10.50;96.10
3408;DHT22;1717;50.240;8.406;2022-11-28T11:11:56;10.50;96.10
3408;DHT22;1717;50.240;8.406;2022-11-28T11:14:33;10.60;96.30
3408;DHT22;1717;50.240;8.406;2022-11-28T11:17:01;10.50;96.40
3408;DHT22;1717;50.240;8.406;2022-11-28T11:19:30;10.50;96.60
3408;DHT22;1717;50.240;8.406;2022-11-28T11:21:59;10.40;96.90
3408;DHT22;1717;50.240;8.406;2022-11-28T11:24:27;10.40;96.80
3408;DHT22;1717;50.240;8.406;2022-11-28T11:27:02;10.50;96.80
3408;DHT22;1717;50.240;8.406;2022-11-28T11:29:33;10.50;96.70
3408;DHT22;1717;50.240;8.406;2022-11-28T11:32:01;10.70;96.80
3408;DHT22;1717;50.240;8.406;2022-11-28T11:34:35;10.50;96.90
3408;DHT22;1717;50.240;8.406;2022-11-28T11:37:18;10.50;97.00
3408;DHT22;1717;50.240;8.406;2022-11-28T11:39:47;10.40;97.20
3408;DHT22;1717;50.240;8.406;2022-11-28T11:42:19;10.50;97.30
3408;DHT22;1717;50.240;8.406;2022-11-28T11:44:48;10.50;97.60
3408;DHT22;1717;50.240;8.406;2022-11-28T11:47:15;10.50;97.80
3408;DHT22;1717;50.240;8.406;2022-11-28T11:49:44;10.60;97.80
3408;DHT22;1717;50.240;8.406;2022-11-28T11:52:20;10.50;97.90
3408;DHT22;1717;50.240;8.406;2022-11-28T11:55:01;10.50;97.90
3408;DHT22;1717;50.240;8.406;2022-11-28T11:57:32;10.60;97.90
3408;DHT22;1717;50.240;8.406;2022-11-28T12:00:05;10.60;98.10
3408;DHT22;1717;50.240;8.406;2022-11-28T12:02:39;10.50;98.20
3408;DHT22;1717;50.240;8.406;2022-11-28T12:05:11;10.50;98.30
3408;DHT22;1717;50.240;8.406;2022-11-28T12:07:47;10.50;98.50
3408;DHT22;1717;50.240;8.406;2022-11-28T12:10:17;10.50;98.50
3408;DHT22;1717;50.240;8.406;2022-11-28T12:12:46;10.50;98.40
3408;DHT22;1717;50.240;8.406;2022-11-28T12:15:22;10.50;98.60
3408;DHT22;1717;50.240;8.406;2022-11-28T12:17:59;10.50;98.50
3408;DHT22;1717;50.240;8.406;2022-11-28T12:20:39;10.40;98.60
3408;DHT22;1717;50.240;8.406;2022-11-28T12:23:24;10.40;98.70
3408;DHT22;1717;50.240;8.406;2022-11-28T12:25:59;10.40;99.00
3408;DHT22;1717;50.240;8.406;2022-11-28T12:28:37;10.40;99.40
3408;DHT22;1717;50.240;8.406;2022-11-28T12:31:15;10.40;99.30
3408;DHT22;1717;50.240;8.406;2022-11-28T12:33:56;10.20;99.90
3408;DHT22;1717;50.240;8.406;2022-11-28T12:36:30;10.30;99.90
3408;DHT22;1717;50.240;8.406;2022-11-28T12:39:12;10.30;99.90
3408;DHT22;1717;50.240;8.406;2022-11-28T12:42:12;10.30;99.90
3408;DHT22;1717;50.240;8.406;2022-11-28T12:44:57;10.30;99.90
3408;DHT22;1717;50.240;8.406;2022-11-28T12:47:38;10.30;99.90
3408;DHT22;1717;50.240;8.406;2022-11-28T12:50:20;10.30;99.90
3408;DHT22;1717;50.240;8.406;2022-11-28T12:52:58;10.30;99.90
3408;DHT22;1717;50.240;8.406;2022-11-28T12:55:32;10.30;99.90
3408;DHT22;1717;50.240;8.406;2022-11-28T12:58:05;10.30;99.90
3408;DHT22;1717;50.240;8.406;2022-11-28T13:00:39;10.40;99.90
3408;DHT22;1717;50.240;8.406;2022-11-28T13:03:27;10.30;99.90
3408;DHT22;1717;50.240;8.406;2022-11-28T13:06:06;10.40;99.90
3408;DHT22;1717;50.240;8.406;2022-11-28T13:08:52;10.30;99.90
3408;DHT22;1717;50.240;8.406;2022-11-28T13:11:36;10.40;99.90
3408;DHT22;1717;50.240;8.406;2022-11-28T13:14:09;10.40;99.90
3408;DHT22;1717;50.240;8.406;2022-11-28T13:16:42;10.40;99.90
3408;DHT22;1717;50.240;8.406;2022-11-28T13:19:22;10.50;99.90
3408;DHT22;1717;50.240;8.406;2022-11-28T13:22:00;10.50;99.90
3408;DHT22;1717;50.240;8.406;2022-11-28T13:24:35;10.50;99.90
3408;DHT22;1717;50.240;8.406;2022-11-28T13:27:10;10.50;99.90
3408;DHT22;1717;50.240;8.406;2022-11-28T13:29:43;10.50;99.90
3408;DHT22;1717;50.240;8.406;2022-11-28T13:32:14;10.50;99.90
3408;DHT22;1717;50.240;8.406;2022-11-28T13:34:45;10.50;99.90
3408;DHT22;1717;50.240;8.406;2022-11-28T13:37:15;10.60;99.90
3408;DHT22;1717;50.240;8.406;2022-11-28T13:39:48;10.50;99.90
3408;DHT22;1717;50.240;8.406;2022-11-28T13:42:24;10.50;99.90
3408;DHT22;1717;50.240;8.406;2022-11-28T13:44:58;10.50;99.90
3408;DHT22;1717;50.240;8.406;2022-11-28T13:47:29;10.60;99.90
3408;DHT22;1717;50.240;8.406;2022-11-28T13:50:33;10.60;99.90
3408;DHT22;1717;50.240;8.406;2022-11-28T13:53:02;10.60;99.90
3408;DHT22;1717;50.240;8.406;2022-11-28T13:55:43;10.60;99.90
3408;DHT22;1717;50.240;8.406;2022-11-28T13:58:16;10.60;99.90
3408;DHT22;1717;50.240;8.406;2022-11-28T14:00:58;10.60;99.90
3408;DHT22;1717;50.240;8.406;2022-11-28T14:03:26;10.60;99.90
3408;DHT22;1717;50.240;8.406;2022-11-28T14:05:59;10.60;99.90
3408;DHT22;1717;50.240;8.406;2022-11-28T14:08:32;10.60;99.90
3408;DHT22;1717;50.240;8.406;2022-11-28T14:11:15;10.60;99.90
3408;DHT22;1717;50.240;8.406;2022-11-28T14:14:08;10.60;99.90
3408;DHT22;1717;50.240;8.406;2022-11-28T14:16:45;10.60;99.90
3408;DHT22;1717;50.240;8.406;2022-11-28T14:19:25;10.60;99.90
3408;DHT22;1717;50.240;8.406;2022-11-28T14:22:05;10.60;99.90
3408;DHT22;1717;50.240;8.406;2022-11-28T14:24:47;10.60;99.90
3408;DHT22;1717;50.240;8.406;2022-11-28T14:27:20;10.60;99.90
3408;DHT22;1717;50.240;8.406;2022-11-28T14:29:50;10.50;99.90
3408;DHT22;1717;50.240;8.406;2022-11-28T14:32:26;10.50;99.90
3408;DHT22;1717;50.240;8.406;2022-11-28T14:34:55;10.50;99.90
3408;DHT22;1717;50.240;8.406;2022-11-28T14:37:51;10.60;99.90
3408;DHT22;1717;50.240;8.406;2022-11-28T14:43:29;10.50;99.90
3408;DHT22;1717;50.240;8.406;2022-11-28T14:46:17;10.50;99.90
3408;DHT22;1717;50.240;8.406;2022-11-28T14:49:06;10.50;99.90
3408;DHT22;1717;50.240;8.406;2022-11-28T14:52:06;10.40;99.90
3408;DHT22;1717;50.240;8.406;2022-11-28T14:54:35;10.50;99.90
3408;DHT22;1717;50.240;8.406;2022-11-28T14:57:11;10.50;99.90
3408;DHT22;1717;50.240;8.406;2022-11-28T14:59:38;10.40;99.90
3408;DHT22;1717;50.240;8.406;2022-11-28T15:05:14;10.40;99.90
3408;DHT22;1717;50.240;8.406;2022-11-28T15:07:51;10.20;99.90
3408;DHT22;1717;50.240;8.406;2022-11-28T15:10:25;10.30;99.90
3408;DHT22;1717;50.240;8.406;2022-11-28T15:13:06;10.30;99.90
3408;DHT22;1717;50.240;8.406;2022-11-28T15:15:35;10.30;99.90
3408;DHT22;1717;50.240;8.406;2022-11-28T15:18:03;10.30;99.90
3408;DHT22;1717;50.240;8.406;2022-11-28T15:20:35;10.30;99.90
3408;DHT22;1717;50.240;8.406;2022-11-28T15:23:03;10.30;99.90
3408;DHT22;1717;50.240;8.406;2022-11-28T15:25:32;10.20;99.90
3408;DHT22;1717;50.240;8.406;2022-11-28T15:28:12;10.20;99.90
3408;DHT22;1717;50.240;8.406;2022-11-28T15:30:44;10.30;99.90
3408;DHT22;1717;50.240;8.406;2022-11-28T15:33:12;10.30;99.90
3408;DHT22;1717;50.240;8.406;2022-11-28T15:35:46;10.20;99.90
3408;DHT22;1717;50.240;8.406;2022-11-28T15:38:17;10.10;99.90
3408;DHT22;1717;50.240;8.406;2022-11-28T15:40:49;10.10;99.90
3408;DHT22;1717;50.240;8.406;2022-11-28T15:43:16;10.00;99.90
3408;DHT22;1717;50.240;8.406;2022-11-28T15:45:47;9.90;99.90
3408;DHT22;1717;50.240;8.406;2022-11-28T15:48:26;9.90;99.90
3408;DHT22;1717;50.240;8.406;2022-11-28T15:50:54;9.70;99.90
3408;DHT22;1717;50.240;8.406;2022-11-28T15:53:21;9.60;99.90
3408;DHT22;1717;50.240;8.406;2022-11-28T15:56:06;9.50;99.90
3408;DHT22;1717;50.240;8.406;2022-11-28T15:58:33;9.50;99.90
3408;DHT22;1717;50.240;8.406;2022-11-28T16:01:04;9.30;99.90
3408;DHT22;1717;50.240;8.406;2022-11-28T16:03:36;9.40;99.90
3408;DHT22;1717;50.240;8.406;2022-11-28T16:06:06;9.40;99.90
3408;DHT22;1717;50.240;8.406;2022-11-28T16:08:35;9.40;99.90
3408;DHT22;1717;50.240;8.406;2022-11-28T16:11:07;9.40;99.90
3408;DHT22;1717;50.240;8.406;2022-11-28T16:13:37;9.30;99.90
3408;DHT22;1717;50.240;8.406;2022-11-28T16:16:09;9.30;99.90
3408;DHT22;1717;50.240;8.406;2022-11-28T16:18:37;9.30;99.90
3408;DHT22;1717;50.240;8.406;2022-11-28T16:21:11;9.30;99.90
3408;DHT22;1717;50.240;8.406;2022-11-28T16:23:39;9.30;99.90
3408;DHT22;1717;50.240;8.406;2022-11-28T16:26:20;9.30;99.90
3408;DHT22;1717;50.240;8.406;2022-11-28T16:28:57;9.30;99.90
3408;DHT22;1717;50.240;8.406;2022-11-28T16:31:26;9.30;99.90
3408;DHT22;1717;50.240;8.406;2022-11-28T16:33:54;9.20;99.90
3408;DHT22;1717;50.240;8.406;2022-11-28T16:36:23;9.20;99.90
3408;DHT22;1717;50.240;8.406;2022-11-28T16:39:01;9.20;99.90
3408;DHT22;1717;50.240;8.406;2022-11-28T16:41:30;9.10;99.90
3408;DHT22;1717;50.240;8.406;2022-11-28T16:44:00;9.10;99.90
3408;DHT22;1717;50.240;8.406;2022-11-28T16:46:33;9.10;99.90
3408;DHT22;1717;50.240;8.406;2022-11-28T16:49:01;9.00;99.90
3408;DHT22;1717;50.240;8.406;2022-11-28T16:51:34;9.00;99.90
3408;DHT22;1717;50.240;8.406;2022-11-28T16:57:10;9.20;99.90
3408;DHT22;1717;50.240;8.406;2022-11-28T16:59:39;9.30;99.90